createdAt,value
2019-01-12T00:00:14.052Z,5.56
2019-01-12T00:02:42.485Z,5.58
2019-01-12T00:05:10.996Z,5.60
2019-01-12T00:07:39.493Z,5.53
2019-01-12T00:10:09.057Z,5.53
2019-01-12T00:12:37.486Z,5.53
2019-01-12T00:15:07.811Z,5.48
2019-01-12T00:17:36.308Z,5.50
2019-01-12T00:20:07.372Z,5.49
2019-01-12T00:22:35.907Z,5.49
2019-01-12T00:25:06.671Z,5.42
2019-01-12T00:27:35.163Z,5.50
2019-01-12T00:30:05.028Z,5.62
2019-01-12T00:32:33.455Z,5.55
2019-01-12T00:35:01.884Z,5.61
2019-01-12T00:37:30.344Z,5.62
2019-01-12T00:39:58.772Z,5.58
2019-01-12T00:42:27.266Z,5.63
2019-01-12T00:44:56.060Z,5.70
2019-01-12T00:47:24.586Z,5.97
2019-01-12T00:49:53.045Z,5.97
2019-01-12T00:52:21.649Z,5.95
2019-01-12T00:54:50.104Z,5.96
2019-01-12T00:57:18.599Z,5.92
2019-01-12T00:59:47.064Z,5.93
2019-01-12T01:02:15.561Z,5.76
2019-01-12T01:04:44.006Z,5.89
2019-01-12T01:07:12.608Z,5.83
2019-01-12T01:09:41.036Z,5.88
2019-01-12T01:12:09.464Z,5.52
2019-01-12T01:14:38.000Z,5.57
2019-01-12T01:17:06.496Z,5.58
2019-01-12T01:19:34.925Z,5.55
2019-01-12T01:22:03.597Z,5.45
2019-01-12T01:24:32.093Z,5.45
2019-01-12T01:27:00.586Z,5.42
2019-01-12T01:29:29.039Z,5.47
2019-01-12T01:31:57.464Z,5.57
2019-01-12T01:34:25.887Z,5.48
2019-01-12T01:36:54.380Z,5.62
2019-01-12T01:39:22.804Z,5.63
2019-01-12T01:41:51.233Z,5.77
2019-01-12T01:44:19.720Z,5.55
2019-01-12T01:46:48.152Z,5.49
2019-01-12T01:49:16.654Z,5.64
2019-01-12T01:51:45.431Z,5.56
2019-01-12T01:54:13.856Z,5.53
2019-01-12T01:56:42.284Z,5.62
2019-01-12T01:59:10.741Z,5.72
2019-01-12T02:01:39.237Z,5.64
2019-01-12T02:04:07.732Z,5.65
2019-01-12T02:06:36.196Z,5.70
2019-01-12T02:09:07.132Z,5.58
2019-01-12T02:11:35.562Z,5.61
2019-01-12T02:14:04.254Z,5.65
2019-01-12T02:16:32.680Z,5.64
2019-01-12T02:19:01.105Z,5.59
2019-01-12T02:21:29.609Z,5.67
2019-01-12T02:23:58.036Z,5.68
2019-01-12T02:26:26.464Z,5.78
2019-01-12T02:28:54.925Z,5.76
2019-01-12T02:31:23.351Z,5.99
2019-01-12T02:33:51.777Z,5.72
2019-01-12T02:36:20.230Z,5.73
2019-01-12T02:38:48.652Z,5.79
2019-01-12T02:41:17.080Z,5.74
2019-01-12T02:43:45.531Z,5.85
2019-01-12T02:46:13.975Z,5.76
2019-01-12T02:48:42.401Z,5.79
2019-01-12T02:51:10.856Z,5.80
2019-01-12T02:53:39.292Z,5.80
2019-01-12T02:56:07.856Z,5.81
2019-01-12T02:58:36.396Z,5.86
2019-01-12T03:01:04.961Z,5.93
2019-01-12T03:03:33.379Z,5.90
2019-01-12T03:06:01.848Z,5.91
2019-01-12T03:08:30.269Z,5.88
2019-01-12T03:10:58.716Z,5.81
2019-01-12T03:13:27.187Z,5.93
2019-01-12T03:15:55.630Z,5.89
2019-01-12T03:18:24.032Z,5.89
2019-01-12T03:20:52.509Z,5.83
2019-01-12T03:23:20.941Z,5.74
2019-01-12T03:25:49.432Z,5.71
2019-01-12T03:28:17.965Z,5.73
2019-01-12T03:30:46.392Z,5.72
2019-01-12T03:33:14.839Z,5.74
2019-01-12T03:35:43.299Z,5.92
2019-01-12T03:38:11.731Z,5.82
2019-01-12T03:40:40.153Z,5.88
2019-01-12T03:43:08.955Z,5.83
2019-01-12T03:45:37.366Z,5.80
2019-01-12T03:48:05.927Z,5.82
2019-01-12T03:50:34.382Z,5.81
2019-01-12T03:53:02.813Z,5.82
2019-01-12T03:55:31.240Z,5.98
2019-01-12T03:58:00.961Z,5.77
2019-01-12T04:00:30.225Z,5.78
2019-01-12T04:02:58.658Z,5.77
2019-01-12T04:05:27.381Z,5.64
2019-01-12T04:07:55.807Z,5.74
2019-01-12T04:10:24.237Z,5.90
2019-01-12T04:12:52.770Z,5.81
2019-01-12T04:15:21.265Z,5.73
2019-01-12T04:17:49.688Z,5.63
2019-01-12T04:20:18.711Z,5.75
2019-01-12T04:22:47.135Z,5.63
2019-01-12T04:25:15.634Z,5.65
2019-01-12T04:27:44.092Z,5.65
2019-01-12T04:30:14.563Z,5.68
2019-01-12T04:32:43.165Z,5.73
2019-01-12T04:35:11.935Z,5.76
2019-01-12T04:37:40.430Z,5.64
2019-01-12T04:40:11.869Z,5.64
2019-01-12T04:42:40.322Z,5.73
2019-01-12T04:45:09.587Z,5.72
2019-01-12T04:47:38.018Z,5.69
2019-01-12T04:50:09.585Z,5.75
2019-01-12T04:52:38.078Z,5.72
2019-01-12T04:55:07.440Z,5.70
2019-01-12T04:57:35.969Z,5.63
2019-01-12T05:00:07.637Z,5.59
2019-01-12T05:02:36.066Z,5.73
2019-01-12T05:05:05.610Z,5.63
2019-01-12T05:07:34.077Z,5.66
2019-01-12T05:10:02.549Z,5.74
2019-01-12T05:12:31.024Z,5.71
2019-01-12T05:14:59.451Z,5.61
2019-01-12T05:17:27.873Z,5.75
2019-01-12T05:19:56.328Z,5.82
2019-01-12T05:22:24.767Z,5.61
2019-01-12T05:24:53.211Z,5.73
2019-01-12T05:27:21.676Z,5.63
2019-01-12T05:29:50.104Z,5.69
2019-01-12T05:32:18.527Z,5.71
2019-01-12T05:34:46.982Z,5.73
2019-01-12T05:37:15.404Z,5.74
2019-01-12T05:39:43.827Z,5.76
2019-01-12T05:42:12.315Z,5.83
2019-01-12T05:44:40.738Z,5.86
2019-01-12T05:47:09.187Z,5.77
2019-01-12T05:49:37.643Z,5.72
2019-01-12T05:52:06.136Z,5.82
2019-01-12T05:54:34.561Z,5.82
2019-01-12T05:57:03.051Z,5.84
2019-01-12T05:59:31.455Z,5.86
2019-01-12T06:01:59.920Z,6.02
2019-01-12T06:04:28.459Z,5.78
2019-01-12T06:06:56.884Z,5.78
2019-01-12T06:09:25.307Z,5.83
2019-01-12T06:11:53.862Z,5.71
2019-01-12T06:14:22.356Z,5.60
2019-01-12T06:16:50.774Z,5.56
2019-01-12T06:19:19.264Z,5.44
2019-01-12T06:21:47.700Z,5.39
2019-01-12T06:24:16.123Z,5.38
2019-01-12T06:26:44.578Z,5.49
2019-01-12T06:29:13.002Z,5.58
2019-01-12T06:31:41.426Z,5.64
2019-01-12T06:34:09.876Z,5.66
2019-01-12T06:36:38.306Z,5.74
2019-01-12T06:39:08.764Z,5.68
2019-01-12T06:41:37.223Z,5.61
2019-01-12T06:44:05.980Z,5.65
2019-01-12T06:46:34.531Z,5.65
2019-01-12T06:49:03.028Z,5.70
2019-01-12T06:51:31.448Z,5.72
2019-01-12T06:53:59.947Z,5.83
2019-01-12T06:56:28.491Z,5.86
2019-01-12T06:58:56.911Z,5.67
2019-01-12T07:01:25.403Z,5.74
2019-01-12T07:03:53.853Z,5.73
2019-01-12T07:06:22.342Z,5.67
2019-01-12T07:08:50.836Z,5.58
2019-01-12T07:11:19.305Z,5.53
2019-01-12T07:13:52.398Z,5.44
2019-01-12T07:16:20.856Z,5.70
2019-01-12T07:18:49.393Z,5.56
2019-01-12T07:21:17.883Z,5.56
2019-01-12T07:23:46.312Z,5.45
2019-01-12T07:26:17.593Z,5.74
2019-01-12T07:28:45.030Z,5.74
2019-01-12T07:31:13.463Z,5.59
2019-01-12T07:33:42.063Z,5.54
2019-01-12T07:36:10.518Z,5.57
2019-01-12T07:38:38.909Z,5.71
2019-01-12T07:41:07.440Z,5.60
2019-01-12T07:43:35.863Z,5.53
2019-01-12T07:46:04.418Z,5.62
2019-01-12T07:48:32.874Z,5.60
2019-01-12T07:51:01.296Z,5.61
2019-01-12T07:53:29.720Z,5.78
2019-01-12T07:55:58.491Z,5.83
2019-01-12T07:58:26.916Z,5.77
2019-01-12T08:00:55.340Z,5.82
2019-01-12T08:03:23.858Z,5.84
2019-01-12T08:05:52.293Z,5.82
2019-01-12T08:08:20.714Z,5.74
2019-01-12T08:10:49.266Z,5.79
2019-01-12T08:13:17.963Z,5.82
2019-01-12T08:15:46.475Z,5.68
2019-01-12T08:18:14.931Z,5.90
2019-01-12T08:20:43.352Z,5.92
2019-01-12T08:23:11.778Z,5.95
2019-01-12T08:25:40.371Z,5.80
2019-01-12T08:28:08.791Z,5.90
2019-01-12T08:30:37.216Z,5.83
2019-01-12T08:33:05.842Z,5.85
2019-01-12T08:35:34.265Z,5.95
2019-01-12T08:38:02.687Z,5.79
2019-01-12T08:40:31.135Z,5.89
2019-01-12T08:42:59.559Z,5.85
2019-01-12T08:45:27.983Z,5.90
2019-01-12T08:47:56.511Z,5.92
2019-01-12T08:50:24.936Z,6.06
2019-01-12T08:52:53.447Z,6.15
2019-01-12T08:55:21.906Z,6.02
2019-01-12T08:57:50.329Z,6.09
2019-01-12T09:00:19.994Z,5.99
2019-01-12T09:02:48.510Z,6.02
2019-01-12T09:05:17.002Z,6.01
2019-01-12T09:07:45.593Z,6.01
2019-01-12T09:10:17.137Z,5.99
2019-01-12T09:12:45.624Z,6.01
2019-01-12T09:15:14.183Z,6.10
2019-01-12T09:17:42.779Z,6.00
2019-01-12T09:20:13.755Z,6.11
2019-01-12T09:22:42.414Z,6.05
2019-01-12T09:25:11.600Z,6.12
2019-01-12T09:27:40.095Z,6.26
2019-01-12T09:30:19.584Z,6.21
2019-01-12T09:32:48.660Z,6.44
2019-01-12T09:35:17.333Z,6.35
2019-01-12T09:37:45.890Z,6.09
2019-01-12T09:40:16.155Z,6.17
2019-01-12T09:42:44.639Z,6.18
2019-01-12T09:45:15.067Z,6.14
2019-01-12T09:47:43.560Z,6.15
2019-01-12T09:50:14.922Z,6.09
2019-01-12T09:52:43.712Z,6.03
2019-01-12T09:55:12.270Z,6.00
2019-01-12T09:57:40.690Z,6.11
2019-01-12T10:00:12.189Z,6.10
2019-01-12T10:02:40.620Z,6.01
2019-01-12T10:05:09.605Z,6.02
2019-01-12T10:07:38.025Z,6.25
2019-01-12T10:10:09.483Z,6.02
2019-01-12T10:12:37.922Z,6.02
2019-01-12T10:15:08.302Z,6.09
2019-01-12T10:17:36.722Z,6.24
2019-01-12T10:20:11.111Z,6.22
2019-01-12T10:22:39.635Z,6.04
2019-01-12T10:25:09.595Z,6.07
2019-01-12T10:27:38.016Z,6.00
2019-01-12T10:30:09.839Z,6.10
2019-01-12T10:32:38.356Z,6.00
2019-01-12T10:35:08.153Z,6.03
2019-01-12T10:37:36.819Z,5.88
2019-01-12T10:40:08.558Z,6.00
2019-01-12T10:42:36.976Z,6.00
2019-01-12T10:45:09.122Z,5.98
2019-01-12T10:47:37.612Z,6.02
2019-01-12T10:50:12.321Z,6.01
2019-01-12T10:52:40.915Z,5.94
2019-01-12T10:55:09.472Z,5.91
2019-01-12T10:57:38.039Z,6.02
2019-01-12T11:00:09.602Z,6.11
2019-01-12T11:02:38.022Z,5.89
2019-01-12T11:05:08.403Z,6.00
2019-01-12T11:07:36.863Z,5.96
2019-01-12T11:10:08.703Z,6.09
2019-01-12T11:12:37.272Z,6.10
2019-01-12T11:15:11.854Z,6.03
2019-01-12T11:17:40.415Z,6.01
2019-01-12T11:20:10.083Z,6.02
2019-01-12T11:22:38.920Z,5.99
2019-01-12T11:25:14.711Z,6.22
2019-01-12T11:27:44.080Z,6.15
2019-01-12T11:30:20.080Z,6.09
2019-01-12T11:32:48.762Z,6.18
2019-01-12T11:35:17.325Z,6.08
2019-01-12T11:37:46.315Z,6.20
2019-01-12T11:40:19.260Z,6.08
2019-01-12T11:42:48.321Z,6.13
2019-01-12T11:45:16.886Z,6.24
2019-01-12T11:47:45.580Z,6.33
2019-01-12T11:50:15.449Z,6.28
2019-01-12T11:52:44.600Z,6.29
2019-01-12T11:55:14.868Z,6.16
2019-01-12T11:57:43.437Z,6.33
2019-01-12T12:00:17.926Z,6.22
2019-01-12T12:02:46.692Z,6.21
2019-01-12T12:05:15.181Z,6.21
2019-01-12T12:07:43.740Z,6.23
2019-01-12T12:10:14.228Z,6.20
2019-01-12T12:12:42.657Z,6.37
2019-01-12T12:15:13.930Z,6.36
2019-01-12T12:17:42.435Z,6.41
2019-01-12T12:20:19.016Z,6.42
2019-01-12T12:22:47.618Z,6.46
2019-01-12T12:25:16.187Z,6.49
2019-01-12T12:27:44.864Z,6.49
2019-01-12T12:30:16.740Z,6.51
2019-01-12T12:32:45.301Z,6.42
2019-01-12T12:35:13.795Z,6.46
2019-01-12T12:37:42.559Z,6.48
2019-01-12T12:40:14.030Z,6.44
2019-01-12T12:42:42.454Z,6.60
2019-01-12T12:45:14.379Z,6.56
2019-01-12T12:47:42.916Z,6.49
2019-01-12T12:50:13.636Z,6.38
2019-01-12T12:52:42.155Z,6.43
2019-01-12T12:55:11.835Z,6.52
2019-01-12T12:57:40.339Z,6.44
2019-01-12T13:00:11.847Z,6.50
2019-01-12T13:02:40.268Z,6.35
2019-01-12T13:05:09.734Z,6.37
2019-01-12T13:07:38.260Z,6.43
2019-01-12T13:10:09.732Z,6.41
2019-01-12T13:12:38.296Z,6.35
2019-01-12T13:15:08.313Z,6.31
2019-01-12T13:17:36.871Z,6.30
2019-01-12T13:20:08.346Z,6.32
2019-01-12T13:22:36.941Z,6.38
2019-01-12T13:25:06.406Z,6.22
2019-01-12T13:27:39.837Z,6.08
2019-01-12T13:30:19.340Z,6.07
2019-01-12T13:32:47.831Z,6.13
2019-01-12T13:35:16.406Z,6.16
2019-01-12T13:37:45.006Z,6.05
2019-01-12T13:40:16.874Z,6.05
2019-01-12T13:42:45.295Z,6.13
2019-01-12T13:45:16.092Z,6.15
2019-01-12T13:47:44.584Z,6.19
2019-01-12T13:50:15.346Z,6.25
2019-01-12T13:52:44.763Z,6.18
2019-01-12T13:55:14.626Z,6.21
2019-01-12T13:57:47.356Z,6.13
2019-01-12T14:00:19.420Z,6.20
2019-01-12T14:02:47.989Z,6.30
2019-01-12T14:05:16.478Z,6.30
2019-01-12T14:07:44.935Z,6.39
2019-01-12T14:10:16.735Z,6.26
2019-01-12T14:12:45.333Z,6.38
2019-01-12T14:15:16.331Z,6.32
2019-01-12T14:17:45.010Z,6.32
2019-01-12T14:20:24.821Z,6.31
2019-01-12T14:22:53.315Z,6.42
2019-01-12T14:25:21.762Z,6.60
2019-01-12T14:27:54.391Z,6.58
2019-01-12T14:30:20.742Z,6.56
2019-01-12T14:32:49.428Z,6.70
2019-01-12T14:35:19.137Z,6.61
2019-01-12T14:37:47.691Z,6.63
2019-01-12T14:40:18.621Z,6.62
2019-01-12T14:42:47.215Z,6.57
2019-01-12T14:45:24.029Z,6.56
2019-01-12T14:47:52.542Z,6.52
2019-01-12T14:50:20.980Z,6.54
2019-01-12T14:52:49.474Z,6.45
2019-01-12T14:55:19.491Z,6.44
2019-01-12T14:57:47.979Z,6.34
2019-01-12T15:00:18.841Z,6.41
2019-01-12T15:02:47.344Z,6.42
2019-01-12T15:05:17.936Z,6.35
2019-01-12T15:07:46.492Z,6.36
2019-01-12T15:10:20.662Z,6.33
2019-01-12T15:12:49.917Z,6.42
2019-01-12T15:15:19.274Z,6.32
2019-01-12T15:17:47.875Z,6.46
2019-01-12T15:20:21.859Z,6.42
2019-01-12T15:22:50.349Z,6.19
2019-01-12T15:25:19.385Z,6.17
2019-01-12T15:27:47.875Z,6.21
2019-01-12T15:30:21.298Z,6.17
2019-01-12T15:32:49.903Z,6.22
2019-01-12T15:35:19.254Z,6.15
2019-01-12T15:37:47.743Z,6.18
2019-01-12T15:40:18.216Z,6.09
2019-01-12T15:42:46.878Z,6.03
2019-01-12T15:45:18.503Z,5.97
2019-01-12T15:47:47.088Z,6.17
2019-01-12T15:50:20.222Z,6.03
2019-01-12T15:52:48.815Z,6.10
2019-01-12T15:55:17.407Z,6.03
2019-01-12T15:57:45.838Z,6.04
2019-01-12T16:00:17.308Z,6.03
2019-01-12T16:02:45.873Z,6.15
2019-01-12T16:05:14.396Z,5.96
2019-01-12T16:07:42.892Z,6.19
2019-01-12T16:10:12.740Z,5.97
2019-01-12T16:12:41.162Z,6.13
2019-01-12T16:15:12.923Z,6.04
2019-01-12T16:17:41.443Z,6.06
2019-01-12T16:20:30.879Z,5.93
2019-01-12T16:22:59.330Z,5.99
2019-01-12T16:25:27.762Z,5.96
2019-01-12T16:27:56.245Z,5.94
2019-01-12T16:30:25.031Z,5.89
2019-01-12T16:32:53.445Z,5.97
2019-01-12T16:35:22.003Z,5.99
2019-01-12T16:37:50.497Z,6.10
2019-01-12T16:40:26.624Z,5.82
2019-01-12T16:42:55.086Z,6.00
2019-01-12T16:45:23.626Z,5.93
2019-01-12T16:47:52.044Z,5.75
2019-01-12T16:50:20.631Z,5.78
2019-01-12T16:52:49.132Z,5.79
2019-01-12T16:55:18.592Z,5.70
2019-01-12T16:57:47.081Z,5.67
2019-01-12T17:00:18.566Z,5.77
2019-01-12T17:02:47.069Z,5.94
2019-01-12T17:05:15.759Z,5.97
2019-01-12T17:07:44.308Z,5.87
2019-01-12T17:10:20.811Z,5.77
2019-01-12T17:12:49.380Z,5.78
2019-01-12T17:15:19.645Z,5.80
2019-01-12T17:17:48.234Z,5.72
2019-01-12T17:20:19.774Z,5.80
2019-01-12T17:22:49.354Z,5.77
2019-01-12T17:25:17.955Z,5.86
2019-01-12T17:27:46.372Z,5.70
2019-01-12T17:30:17.157Z,5.76
2019-01-12T17:32:45.714Z,5.72
2019-01-12T17:35:14.675Z,5.86
2019-01-12T17:37:43.364Z,5.84
2019-01-12T17:40:13.552Z,5.81
2019-01-12T17:42:42.110Z,5.72
2019-01-12T17:45:18.816Z,5.68
2019-01-12T17:47:47.322Z,5.55
2019-01-12T17:50:17.786Z,5.79
2019-01-12T17:52:47.026Z,5.84
2019-01-12T17:55:17.690Z,5.72
2019-01-12T17:57:46.208Z,5.80
2019-01-12T18:00:19.011Z,5.82
2019-01-12T18:02:47.504Z,5.84
2019-01-12T18:05:16.002Z,5.81
2019-01-12T18:07:44.792Z,5.81
2019-01-12T18:10:14.550Z,5.76
2019-01-12T18:12:43.111Z,5.85
2019-01-12T18:15:15.835Z,5.87
2019-01-12T18:17:44.255Z,5.84
2019-01-12T18:20:16.941Z,5.78
2019-01-12T18:22:46.047Z,5.91
2019-01-12T18:25:14.922Z,6.05
2019-01-12T18:27:43.442Z,5.97
2019-01-12T18:30:17.399Z,5.88
2019-01-12T18:32:45.841Z,5.91
2019-01-12T18:35:14.400Z,5.85
2019-01-12T18:37:43.007Z,5.78
2019-01-12T18:40:14.000Z,5.68
2019-01-12T18:42:42.668Z,5.83
2019-01-12T18:45:13.568Z,5.95
2019-01-12T18:47:42.109Z,5.79
2019-01-12T18:50:14.075Z,5.87
2019-01-12T18:52:42.627Z,5.79
2019-01-12T18:55:12.896Z,5.81
2019-01-12T18:57:41.328Z,5.76
2019-01-12T19:00:18.344Z,5.89
2019-01-12T19:02:43.341Z,5.75
2019-01-12T19:05:11.840Z,5.78
2019-01-12T19:07:40.309Z,5.90
2019-01-12T19:10:11.476Z,5.86
2019-01-12T19:12:39.980Z,5.74
2019-01-12T19:15:12.060Z,5.71
2019-01-12T19:17:40.557Z,5.74
2019-01-12T19:20:10.029Z,5.90
2019-01-12T19:22:38.657Z,5.89
2019-01-12T19:25:09.727Z,5.97
2019-01-12T19:27:38.157Z,5.94
2019-01-12T19:30:09.669Z,5.81
2019-01-12T19:32:38.093Z,5.86
2019-01-12T19:35:06.763Z,5.86
2019-01-12T19:37:35.297Z,5.97
2019-01-12T19:40:05.240Z,5.99
2019-01-12T19:42:33.671Z,6.03
2019-01-12T19:45:02.132Z,6.10
2019-01-12T19:47:30.574Z,6.13
2019-01-12T19:49:58.994Z,6.14
2019-01-12T19:52:27.768Z,6.09
2019-01-12T19:54:56.204Z,6.36
2019-01-12T19:57:24.634Z,6.27
2019-01-12T19:59:53.085Z,6.30
2019-01-12T20:02:21.519Z,6.27
2019-01-12T20:04:49.953Z,6.21
2019-01-12T20:07:18.426Z,6.36
2019-01-12T20:09:46.851Z,6.29
2019-01-12T20:12:15.363Z,6.33
2019-01-12T20:14:44.039Z,6.36
2019-01-12T20:17:12.537Z,6.29
2019-01-12T20:19:40.971Z,6.23
2019-01-12T20:22:09.574Z,6.22
2019-01-12T20:24:38.023Z,6.22
2019-01-12T20:27:06.517Z,6.50
2019-01-12T20:29:34.978Z,6.36
2019-01-12T20:32:24.277Z,6.30
2019-01-12T20:34:52.988Z,6.24
2019-01-12T20:37:30.112Z,6.35
2019-01-12T20:40:17.863Z,6.28
2019-01-12T20:43:01.236Z,6.34
2019-01-12T20:45:53.048Z,6.47
2019-01-12T20:48:24.530Z,6.48
2019-01-12T20:51:17.115Z,6.38
2019-01-12T20:53:51.180Z,6.52
2019-01-12T20:56:31.772Z,6.26
2019-01-12T20:59:27.928Z,6.45
2019-01-12T21:01:54.332Z,6.37
2019-01-12T21:04:25.775Z,6.38
2019-01-12T21:07:14.524Z,6.47
2019-01-12T21:09:57.672Z,6.48
2019-01-12T21:12:35.101Z,6.44
2019-01-12T21:15:06.810Z,6.48
2019-01-12T21:17:35.259Z,6.48
2019-01-12T21:20:05.709Z,6.63
2019-01-12T21:22:34.473Z,6.65
2019-01-12T21:25:02.906Z,6.60
2019-01-12T21:27:31.692Z,6.57
2019-01-12T21:30:00.164Z,6.71
2019-01-12T21:32:28.577Z,6.68
2019-01-12T21:34:58.338Z,6.69
2019-01-12T21:37:26.849Z,6.73
2019-01-12T21:39:55.275Z,6.73
2019-01-12T21:42:23.800Z,6.66
2019-01-12T21:44:52.237Z,6.76
2019-01-12T21:47:20.673Z,6.64
2019-01-12T21:49:49.193Z,6.61
2019-01-12T21:52:17.637Z,6.68
2019-01-12T21:54:46.059Z,6.68
2019-01-12T21:57:14.506Z,6.90
2019-01-12T21:59:42.985Z,6.80
2019-01-12T22:02:11.394Z,6.81
2019-01-12T22:04:39.852Z,6.84
2019-01-12T22:07:08.271Z,6.82
2019-01-12T22:09:36.694Z,6.91
2019-01-12T22:12:05.380Z,6.97
2019-01-12T22:14:33.819Z,7.00
2019-01-12T22:17:02.329Z,7.00
2019-01-12T22:19:36.775Z,7.08
2019-01-12T22:22:05.337Z,7.01
2019-01-12T22:24:33.759Z,7.00
2019-01-12T22:27:02.301Z,7.09
2019-01-12T22:29:30.726Z,6.98
2019-01-12T22:31:59.141Z,7.02
2019-01-12T22:34:27.667Z,7.10
2019-01-12T22:36:56.158Z,7.27
2019-01-12T22:39:24.584Z,7.23
2019-01-12T22:41:53.115Z,7.19
2019-01-12T22:44:21.571Z,7.23
2019-01-12T22:46:49.998Z,7.16
2019-01-12T22:49:18.547Z,7.20
2019-01-12T22:51:46.966Z,7.28
2019-01-12T22:54:16.589Z,7.15
2019-01-12T22:56:45.334Z,7.23
2019-01-12T22:59:13.759Z,7.20
2019-01-12T23:01:44.225Z,7.23
2019-01-12T23:04:12.819Z,7.24
2019-01-12T23:06:41.379Z,7.24
2019-01-12T23:09:11.171Z,7.20
2019-01-12T23:11:39.679Z,7.29
2019-01-12T23:14:08.098Z,7.20
2019-01-12T23:16:36.591Z,7.28
2019-01-12T23:19:05.602Z,7.34
2019-01-12T23:21:34.090Z,7.25
2019-01-12T23:24:02.590Z,7.21
2019-01-12T23:26:31.142Z,7.20
2019-01-12T23:28:59.558Z,7.13
2019-01-12T23:31:28.045Z,7.17
2019-01-12T23:33:56.498Z,7.19
2019-01-12T23:36:25.049Z,7.11
2019-01-12T23:38:53.538Z,7.05
2019-01-12T23:41:22.057Z,7.05
2019-01-12T23:43:50.546Z,7.07
2019-01-12T23:46:18.962Z,7.12
2019-01-12T23:48:47.487Z,7.14
2019-01-12T23:51:15.974Z,7.13
2019-01-12T23:53:44.390Z,7.18
2019-01-12T23:56:12.839Z,7.16
2019-01-12T23:58:41.326Z,7.29
